Current Weather

Teniente Col Carmelo Peralta

Teniente Col Carmelo Peralta, Paraguay (SGCO)

Report from: Monday, June 17, 2024 6:00 AM -04
Current time: Monday, June 17, 2024 6:17 AM -04

Nearby weather – Weather history – Daily summaries
Weather forecast

Present weatherHeavy fog, VV
Temperature21.0°C (69.8°F)
Dew point21.0°C (69.8°F)
Winds Calm
Visibility984.3 ft. (300 m)
Altimeter29.85 in.Hg (1011 mB)
Relative humidity100 %
Density altitude1,112 ft. (339 m)
Flight conditions Low Instrument Meteorological Conditions
Raw dataSGCO 171000Z 00000KT 0300 +FG VV /// 21/21 Q1011
An error has occurred. This application may no longer respond until reloaded. Reload 🗙